createdAt,value
2022-10-21T00:01:05.773Z,17.17
2022-10-21T00:03:35.755Z,17.19
2022-10-21T00:06:04.997Z,17.29
2022-10-21T00:08:33.371Z,16.79
2022-10-21T00:11:03.229Z,16.61
2022-10-21T00:13:32.674Z,16.81
2022-10-21T00:16:02.168Z,17.75
2022-10-21T00:18:31.410Z,17.94
2022-10-21T00:21:01.150Z,16.99
2022-10-21T00:23:29.372Z,18.39
2022-10-21T00:25:58.463Z,18.09
2022-10-21T00:28:27.051Z,16.93
2022-10-21T00:30:57.971Z,17.23
2022-10-21T00:33:27.618Z,17.59
2022-10-21T00:35:58.405Z,17.64
2022-10-21T00:38:27.979Z,17.14
2022-10-21T00:40:56.422Z,18.33
2022-10-21T00:43:25.446Z,18.93
2022-10-21T00:45:55.683Z,19.01
2022-10-21T00:48:27.920Z,19.16
2022-10-21T00:50:58.051Z,19.21
2022-10-21T00:53:28.134Z,18.97
2022-10-21T00:55:59.576Z,18.96
2022-10-21T00:58:30.257Z,19.18
2022-10-21T01:00:59.936Z,19.31
2022-10-21T01:03:29.342Z,18.84
2022-10-21T01:05:59.123Z,18.30
2022-10-21T01:08:29.191Z,18.49
2022-10-21T01:10:57.584Z,18.92
2022-10-21T01:13:29.978Z,18.69
2022-10-21T01:16:03.907Z,18.60
2022-10-21T01:18:37.846Z,19.02
2022-10-21T01:21:21.945Z,19.28
2022-10-21T01:24:24.535Z,19.19
2022-10-21T01:27:13.319Z,19.43
2022-10-21T01:30:10.396Z,18.87
2022-10-21T01:32:57.206Z,18.83
2022-10-21T01:35:28.117Z,19.31
2022-10-21T01:38:02.183Z,19.39
2022-10-21T01:40:35.127Z,19.30
2022-10-21T01:43:09.462Z,18.82
2022-10-21T01:45:39.455Z,18.71
2022-10-21T01:48:11.750Z,18.95
2022-10-21T01:50:44.160Z,18.66
2022-10-21T01:53:14.402Z,19.15
2022-10-21T01:55:43.009Z,19.18
2022-10-21T01:58:15.000Z,18.58
2022-10-21T02:00:44.864Z,18.44
2022-10-21T02:03:18.378Z,18.56
2022-10-21T02:05:46.725Z,17.74
2022-10-21T02:08:15.086Z,18.00
2022-10-21T02:10:47.402Z,18.86
2022-10-21T02:13:20.046Z,18.18
2022-10-21T02:15:48.323Z,18.54
2022-10-21T02:18:23.358Z,19.18
2022-10-21T02:20:55.726Z,19.27
2022-10-21T02:23:27.921Z,19.29
2022-10-21T02:25:56.177Z,19.12
2022-10-21T02:28:24.447Z,18.38
2022-10-21T02:31:00.436Z,17.71
2022-10-21T02:33:34.873Z,17.47
2022-10-21T02:36:11.124Z,17.18
2022-10-21T02:38:42.757Z,18.68
2022-10-21T02:41:12.674Z,18.96
2022-10-21T02:43:42.930Z,18.20
2022-10-21T02:46:13.167Z,18.41
2022-10-21T02:48:45.775Z,18.85
2022-10-21T02:51:14.348Z,19.06
2022-10-21T02:53:43.040Z,17.68
2022-10-21T02:56:11.321Z,17.25
2022-10-21T02:58:39.610Z,17.25
2022-10-21T03:01:07.907Z,17.49
2022-10-21T03:03:36.191Z,17.79
2022-10-21T03:06:05.932Z,17.82
2022-10-21T03:08:34.275Z,17.66
2022-10-21T03:11:02.651Z,17.29
2022-10-21T03:13:31.215Z,17.49
2022-10-21T03:15:59.459Z,18.60
2022-10-21T03:18:27.688Z,18.31
2022-10-21T03:20:55.942Z,17.94
2022-10-21T03:23:25.585Z,18.68
2022-10-21T03:25:53.902Z,18.68
2022-10-21T03:28:22.130Z,18.42
2022-10-21T03:30:50.356Z,18.86
2022-10-21T03:33:18.625Z,18.61
2022-10-21T03:35:46.839Z,18.07
2022-10-21T03:38:15.083Z,18.64
2022-10-21T03:40:44.691Z,19.03
2022-10-21T03:43:12.964Z,18.27
2022-10-21T03:45:41.237Z,18.86
2022-10-21T03:48:09.680Z,18.81
2022-10-21T03:50:37.962Z,18.32
2022-10-21T03:53:13.696Z,18.39
2022-10-21T03:55:50.178Z,18.78
2022-10-21T03:58:21.338Z,18.39
2022-10-21T04:00:52.837Z,18.65
2022-10-21T04:03:21.259Z,17.40
2022-10-21T04:05:49.603Z,17.39
2022-10-21T04:08:17.998Z,17.08
2022-10-21T04:10:46.608Z,18.30
2022-10-21T04:13:16.233Z,18.47
2022-10-21T04:15:45.613Z,19.02
2022-10-21T04:18:13.818Z,18.39
2022-10-21T04:20:42.027Z,17.96
2022-10-21T04:23:10.269Z,17.13
2022-10-21T04:25:38.481Z,17.90
2022-10-21T04:28:06.765Z,18.38
2022-10-21T04:30:36.386Z,17.64
2022-10-21T04:33:04.947Z,17.48
2022-10-21T04:35:33.240Z,17.27
2022-10-21T04:38:01.447Z,17.39
2022-10-21T04:40:29.724Z,17.08
2022-10-21T04:42:57.908Z,16.76
2022-10-21T04:45:26.121Z,16.51
2022-10-21T04:47:55.725Z,16.84
2022-10-21T04:50:24.065Z,16.92
2022-10-21T04:52:52.456Z,17.13
2022-10-21T04:55:20.696Z,17.47
2022-10-21T04:57:49.098Z,17.01
2022-10-21T05:00:17.328Z,17.05
2022-10-21T05:02:45.590Z,17.05
2022-10-21T05:05:15.259Z,17.39
2022-10-21T05:07:43.470Z,17.32
2022-10-21T05:10:11.664Z,17.61
2022-10-21T05:12:39.867Z,17.46
2022-10-21T05:15:09.144Z,17.30
2022-10-21T05:17:37.782Z,17.55
2022-10-21T05:20:07.468Z,17.40
2022-10-21T05:25:23.949Z,17.30
2022-10-21T05:27:52.475Z,17.46
2022-10-21T05:30:20.708Z,17.44
2022-10-21T05:32:48.965Z,17.49
2022-10-21T05:35:17.452Z,17.11
2022-10-21T05:37:47.041Z,17.08
2022-10-21T05:40:15.313Z,17.13
2022-10-21T05:42:43.565Z,17.61
2022-10-21T05:45:12.503Z,17.68
2022-10-21T05:47:42.154Z,17.84
2022-10-21T05:50:11.066Z,17.72
2022-10-21T05:52:39.566Z,17.72
2022-10-21T05:55:10.772Z,17.95
2022-10-21T05:57:39.801Z,17.61
2022-10-21T06:00:09.690Z,17.66
2022-10-21T06:02:38.290Z,17.28
2022-10-21T06:05:07.048Z,17.46
2022-10-21T06:07:35.955Z,17.55
2022-10-21T06:10:04.924Z,17.10
2022-10-21T06:12:35.618Z,16.78
2022-10-21T06:15:03.820Z,17.03
2022-10-21T06:17:32.110Z,16.77
2022-10-21T06:20:01.664Z,17.17
2022-10-21T06:22:29.945Z,17.38
2022-10-21T06:24:58.182Z,17.15
2022-10-21T06:27:26.457Z,16.98
2022-10-21T06:29:56.068Z,16.84
2022-10-21T06:32:24.280Z,16.78
2022-10-21T06:34:52.521Z,16.66
2022-10-21T06:37:20.743Z,17.11
2022-10-21T06:39:48.953Z,17.15
2022-10-21T06:42:17.309Z,16.94
2022-10-21T06:47:32.488Z,16.82
2022-10-21T06:50:03.117Z,17.46
2022-10-21T06:52:31.875Z,17.05
2022-10-21T06:55:00.093Z,17.00
2022-10-21T06:57:28.774Z,17.56
2022-10-21T06:59:56.980Z,17.63
2022-10-21T07:02:25.460Z,17.69
2022-10-21T07:04:57.570Z,17.58
2022-10-21T07:07:25.908Z,17.46
2022-10-21T07:09:57.619Z,17.41
2022-10-21T07:12:26.520Z,17.21
2022-10-21T07:14:55.182Z,17.32
2022-10-21T07:17:23.701Z,17.41
2022-10-21T07:19:51.951Z,17.56
2022-10-21T07:22:21.513Z,17.55
2022-10-21T07:24:49.739Z,17.75
2022-10-21T07:27:18.041Z,17.72
2022-10-21T07:29:46.310Z,17.92
2022-10-21T07:32:14.579Z,17.64
2022-10-21T07:34:43.038Z,18.00
2022-10-21T07:37:11.313Z,18.68
2022-10-21T07:39:40.954Z,17.97
2022-10-21T07:42:09.791Z,18.44
2022-10-21T07:44:38.020Z,17.93
2022-10-21T07:47:06.234Z,18.59
2022-10-21T07:49:34.505Z,18.74
2022-10-21T07:52:02.785Z,18.38
2022-10-21T07:54:31.046Z,18.73
2022-10-21T07:57:00.571Z,18.57
2022-10-21T07:59:28.768Z,18.61
2022-10-21T08:01:57.008Z,18.48
2022-10-21T08:04:29.666Z,18.58
2022-10-21T08:06:58.066Z,19.31
2022-10-21T08:09:26.539Z,19.42
2022-10-21T08:11:54.813Z,18.91
2022-10-21T08:14:24.498Z,19.98
2022-10-21T08:16:53.868Z,19.51
2022-10-21T08:19:29.320Z,19.12
2022-10-21T08:21:58.157Z,18.87
2022-10-21T08:24:27.030Z,19.64
2022-10-21T08:26:55.332Z,19.78
2022-10-21T08:29:25.024Z,20.43
2022-10-21T08:31:53.225Z,20.31
2022-10-21T08:34:21.482Z,20.28
2022-10-21T08:36:49.683Z,19.94
2022-10-21T08:39:17.938Z,20.00
2022-10-21T08:42:02.710Z,19.32
2022-10-21T08:44:38.530Z,20.03
2022-10-21T08:47:13.025Z,19.87
2022-10-21T08:49:51.930Z,20.80
2022-10-21T08:52:23.397Z,20.76
2022-10-21T08:54:55.902Z,19.62
2022-10-21T08:57:24.326Z,20.30
2022-10-21T08:59:54.093Z,20.66
2022-10-21T09:02:39.877Z,20.78
2022-10-21T09:05:29.625Z,20.24
2022-10-21T09:08:04.579Z,20.26
2022-10-21T09:10:42.527Z,20.82
2022-10-21T09:13:14.465Z,20.10
2022-10-21T09:15:52.141Z,20.05
2022-10-21T09:18:29.338Z,19.93
2022-10-21T09:21:06.111Z,19.42
2022-10-21T09:23:54.844Z,20.42
2022-10-21T09:26:39.898Z,20.20
2022-10-21T09:29:24.600Z,19.81
2022-10-21T09:31:59.887Z,20.27
2022-10-21T09:34:43.829Z,20.58
2022-10-21T09:37:17.925Z,20.80
2022-10-21T09:39:48.775Z,20.71
2022-10-21T09:42:42.376Z,21.05
2022-10-21T09:45:06.417Z,21.51
2022-10-21T09:47:35.998Z,21.21
2022-10-21T09:50:08.338Z,21.36
2022-10-21T09:52:38.020Z,21.23
2022-10-21T09:55:07.748Z,21.16
2022-10-21T09:57:43.679Z,21.20
2022-10-21T10:00:14.094Z,21.23
2022-10-21T10:02:45.434Z,20.88
2022-10-21T10:05:36.255Z,20.69
2022-10-21T10:08:26.123Z,20.56
2022-10-21T10:11:03.021Z,19.84
2022-10-21T10:13:31.994Z,19.75
2022-10-21T10:16:19.380Z,19.98
2022-10-21T10:18:49.456Z,20.49
2022-10-21T10:21:18.763Z,19.99
2022-10-21T10:23:49.207Z,19.70
2022-10-21T10:26:24.490Z,19.65
2022-10-21T10:28:55.371Z,19.71
2022-10-21T10:31:30.219Z,20.24
2022-10-21T10:34:01.438Z,20.21
2022-10-21T10:36:32.625Z,20.08
2022-10-21T10:39:02.167Z,19.98
2022-10-21T10:41:33.920Z,20.12
2022-10-21T10:44:03.196Z,20.35
2022-10-21T10:46:32.534Z,20.67
2022-10-21T10:49:07.070Z,20.36
2022-10-21T10:51:36.687Z,20.23
2022-10-21T10:56:46.182Z,20.86
2022-10-21T10:59:18.169Z,21.27
2022-10-21T11:01:52.712Z,21.77
2022-10-21T11:04:26.778Z,21.69
2022-10-21T11:06:57.911Z,22.58
2022-10-21T11:09:27.500Z,22.55
2022-10-21T11:11:56.457Z,23.26
2022-10-21T11:14:24.812Z,23.48
2022-10-21T11:17:07.516Z,22.88
2022-10-21T11:19:44.743Z,23.21
2022-10-21T11:22:16.597Z,21.96
2022-10-21T11:24:55.634Z,22.65
2022-10-21T11:27:45.282Z,22.26
2022-10-21T11:30:15.499Z,22.66
2022-10-21T11:32:58.133Z,21.73
2022-10-21T11:35:35.538Z,21.75
2022-10-21T11:38:23.316Z,21.28
2022-10-21T11:40:54.257Z,21.41
2022-10-21T11:43:30.130Z,20.78
2022-10-21T11:46:02.681Z,20.51
2022-10-21T11:48:37.925Z,22.17
2022-10-21T11:51:16.851Z,21.26
2022-10-21T11:53:56.232Z,21.74
2022-10-21T11:56:29.122Z,21.78
2022-10-21T11:59:06.975Z,21.37
2022-10-21T12:01:46.093Z,21.46
2022-10-21T12:04:28.350Z,21.83
2022-10-21T12:07:15.569Z,21.32
2022-10-21T12:09:54.559Z,21.83
2022-10-21T12:12:25.217Z,21.88
2022-10-21T12:14:56.536Z,22.20
2022-10-21T12:17:25.623Z,21.88
2022-10-21T12:19:57.022Z,22.67
2022-10-21T12:22:27.989Z,22.90
2022-10-21T12:25:01.842Z,22.56
2022-10-21T12:27:33.458Z,21.92
2022-10-21T12:30:12.852Z,22.75
2022-10-21T12:32:46.471Z,22.28
2022-10-21T12:35:15.707Z,22.47
2022-10-21T12:38:06.920Z,22.18
2022-10-21T12:40:39.190Z,22.01
2022-10-21T12:43:19.828Z,21.95
2022-10-21T12:46:07.123Z,22.27
2022-10-21T12:48:38.891Z,23.05
2022-10-21T12:51:09.494Z,23.50
2022-10-21T12:56:34.659Z,22.91
2022-10-21T12:59:06.212Z,22.89
2022-10-21T13:01:38.757Z,23.03
2022-10-21T13:04:16.189Z,23.14
2022-10-21T13:06:53.378Z,23.14
2022-10-21T13:09:40.928Z,23.74
2022-10-21T13:12:28.729Z,23.63
2022-10-21T13:14:58.826Z,22.95
2022-10-21T13:17:51.301Z,23.61
2022-10-21T13:20:48.313Z,23.53
2022-10-21T13:23:31.729Z,24.12
2022-10-21T13:26:25.169Z,23.74
2022-10-21T13:28:58.989Z,24.19
2022-10-21T13:31:27.280Z,23.83
2022-10-21T13:33:56.667Z,23.39
2022-10-21T13:39:08.456Z,23.07
2022-10-21T13:41:38.261Z,23.04
2022-10-21T13:44:07.865Z,23.06
2022-10-21T13:46:40.834Z,22.91
2022-10-21T13:49:27.407Z,22.97
2022-10-21T13:51:55.662Z,22.55
2022-10-21T13:54:23.869Z,22.86
2022-10-21T13:56:53.487Z,22.21
2022-10-21T13:59:26.322Z,21.86
2022-10-21T14:01:55.993Z,21.98
2022-10-21T14:04:26.160Z,21.83
2022-10-21T14:06:58.092Z,22.25
2022-10-21T14:09:29.150Z,22.55
2022-10-21T14:12:01.968Z,22.29
2022-10-21T14:14:31.699Z,22.34
2022-10-21T14:17:02.117Z,21.70
2022-10-21T14:19:32.127Z,21.83
2022-10-21T14:22:01.184Z,21.90
2022-10-21T14:24:34.805Z,21.88
2022-10-21T14:27:05.380Z,21.87
2022-10-21T14:29:35.772Z,21.54
2022-10-21T14:32:04.589Z,22.06
2022-10-21T14:34:34.655Z,22.24
2022-10-21T14:37:09.384Z,21.89
2022-10-21T14:39:40.554Z,22.41
2022-10-21T14:42:15.942Z,22.11
2022-10-21T14:44:45.112Z,22.19
2022-10-21T14:47:18.758Z,22.32
2022-10-21T14:49:48.972Z,21.98
2022-10-21T14:52:20.884Z,22.29
2022-10-21T14:54:50.819Z,21.93
2022-10-21T14:57:30.462Z,22.40
2022-10-21T14:59:59.366Z,21.95
2022-10-21T15:02:30.046Z,22.66
2022-10-21T15:05:00.382Z,22.85
2022-10-21T15:07:30.433Z,22.71
2022-10-21T15:10:14.687Z,21.93
2022-10-21T15:12:45.603Z,21.92
2022-10-21T15:15:53.227Z,21.95
2022-10-21T15:18:24.218Z,22.08
2022-10-21T15:20:57.915Z,22.32
2022-10-21T15:23:29.233Z,22.65
2022-10-21T15:26:00.770Z,22.51
2022-10-21T15:28:34.536Z,22.63
2022-10-21T15:31:03.410Z,22.43
2022-10-21T15:33:31.969Z,21.51
2022-10-21T15:36:04.246Z,22.25
2022-10-21T15:38:32.495Z,22.06
2022-10-21T15:41:00.896Z,21.62
2022-10-21T15:43:29.213Z,21.84
2022-10-21T15:45:58.757Z,22.33
2022-10-21T15:48:28.107Z,22.42
2022-10-21T15:50:57.769Z,22.06
2022-10-21T15:53:26.271Z,21.66
2022-10-21T15:55:55.460Z,21.99
2022-10-21T15:58:23.730Z,21.78
2022-10-21T16:00:51.992Z,21.95
2022-10-21T16:03:22.787Z,22.25
2022-10-21T16:05:51.493Z,21.90
2022-10-21T16:08:19.806Z,22.15
2022-10-21T16:10:49.910Z,22.67
2022-10-21T16:13:18.170Z,22.07
2022-10-21T16:15:46.605Z,22.10
2022-10-21T16:18:16.958Z,21.79
2022-10-21T16:20:46.566Z,22.58
2022-10-21T16:23:14.909Z,22.12
2022-10-21T16:25:43.234Z,22.59
2022-10-21T16:28:12.363Z,22.16
2022-10-21T16:30:41.835Z,22.18
2022-10-21T16:33:11.278Z,22.46
2022-10-21T16:35:39.589Z,22.11
2022-10-21T16:38:10.158Z,21.78
2022-10-21T16:40:38.432Z,22.31
2022-10-21T16:43:06.651Z,22.05
2022-10-21T16:45:34.851Z,22.26
2022-10-21T16:48:05.317Z,21.99
2022-10-21T16:50:37.110Z,22.38
2022-10-21T16:53:05.438Z,21.95
2022-10-21T16:58:25.558Z,22.22
2022-10-21T17:00:53.777Z,22.47
2022-10-21T17:03:21.992Z,22.25
2022-10-21T17:17:32.800Z,23.02
2022-10-21T17:20:01.054Z,22.79
2022-10-21T17:22:29.532Z,22.79
2022-10-21T17:24:57.788Z,23.45
2022-10-21T17:27:30.622Z,23.00
2022-10-21T17:29:58.843Z,23.10
2022-10-21T17:32:27.083Z,22.85
2022-10-21T17:34:55.736Z,23.13
2022-10-21T17:37:24.167Z,22.41
2022-10-21T17:39:52.391Z,22.54
2022-10-21T17:42:20.830Z,22.67
2022-10-21T17:44:50.862Z,22.69
2022-10-21T17:47:19.039Z,22.15
2022-10-21T17:49:47.249Z,22.43
2022-10-21T17:52:15.490Z,22.94
2022-10-21T17:54:43.923Z,22.39
2022-10-21T17:57:12.166Z,22.65
2022-10-21T17:59:40.516Z,22.42
2022-10-21T18:02:10.757Z,22.85
2022-10-21T18:04:39.018Z,22.96
2022-10-21T18:07:09.750Z,23.04
2022-10-21T18:09:39.123Z,23.14
2022-10-21T18:12:09.871Z,22.66
2022-10-21T18:14:38.122Z,22.95
2022-10-21T18:17:06.407Z,22.14
2022-10-21T18:19:36.276Z,22.37
2022-10-21T18:22:04.656Z,22.07
2022-10-21T18:24:32.902Z,22.01
2022-10-21T18:27:01.165Z,21.80
2022-10-21T18:29:29.390Z,22.37
2022-10-21T18:31:57.650Z,22.48
2022-10-21T18:34:26.392Z,22.61
2022-10-21T18:36:56.615Z,22.59
2022-10-21T18:39:24.866Z,22.69
2022-10-21T18:42:11.936Z,21.53
2022-10-21T18:44:40.265Z,22.05
2022-10-21T18:47:08.611Z,22.04
2022-10-21T18:49:36.916Z,21.57
2022-10-21T18:52:06.468Z,22.24
2022-10-21T18:54:34.827Z,22.80
2022-10-21T18:57:03.634Z,22.69
2022-10-21T18:59:31.862Z,23.17
2022-10-21T19:02:00.168Z,23.25
2022-10-21T19:04:28.440Z,23.22
2022-10-21T19:09:57.294Z,23.02
2022-10-21T19:12:25.562Z,23.08
2022-10-21T19:14:53.880Z,22.72
2022-10-21T19:17:22.190Z,23.07
2022-10-21T19:19:51.068Z,22.79
2022-10-21T19:22:19.933Z,23.38
2022-10-21T19:24:48.285Z,23.55
2022-10-21T19:27:17.813Z,23.60
2022-10-21T19:29:46.454Z,23.60
2022-10-21T19:32:16.672Z,23.21
2022-10-21T19:34:45.157Z,23.17
2022-10-21T19:37:13.529Z,22.86
2022-10-21T19:39:41.748Z,22.98
2022-10-21T19:42:09.952Z,23.10
2022-10-21T19:47:25.699Z,21.94
2022-10-21T19:49:53.904Z,23.15
2022-10-21T19:52:22.142Z,22.62
2022-10-21T19:54:51.023Z,22.64
2022-10-21T19:57:19.223Z,22.25
2022-10-21T19:59:50.085Z,22.89
2022-10-21T20:02:18.427Z,22.32
2022-10-21T20:04:46.913Z,22.84
2022-10-21T20:07:15.121Z,22.58
2022-10-21T20:09:43.593Z,22.93
2022-10-21T20:12:11.779Z,22.58
2022-10-21T20:14:40.047Z,22.04
2022-10-21T20:17:09.990Z,22.83
2022-10-21T20:19:38.197Z,22.14
2022-10-21T20:22:06.403Z,22.61
2022-10-21T20:24:34.909Z,22.55
2022-10-21T20:27:03.189Z,22.78
2022-10-21T20:29:31.627Z,23.08
2022-10-21T20:31:59.980Z,23.34
2022-10-21T20:34:31.694Z,22.35
2022-10-21T20:37:02.306Z,21.75
2022-10-21T20:39:30.562Z,22.21
2022-10-21T20:41:59.055Z,23.13
2022-10-21T20:44:27.322Z,22.67
2022-10-21T20:46:55.732Z,22.11
2022-10-21T20:49:24.203Z,22.09
2022-10-21T20:51:53.929Z,22.97
2022-10-21T20:54:22.878Z,23.24
2022-10-21T20:56:51.162Z,22.41
2022-10-21T20:59:20.041Z,22.86
2022-10-21T21:01:48.784Z,23.39
2022-10-21T21:04:20.601Z,23.49
2022-10-21T21:06:50.458Z,23.59
2022-10-21T21:09:43.707Z,23.47
2022-10-21T21:12:09.743Z,23.56
2022-10-21T21:14:38.452Z,23.61
2022-10-21T21:17:25.505Z,22.81
2022-10-21T21:19:53.703Z,23.38
2022-10-21T21:22:22.320Z,23.69
2022-10-21T21:24:51.887Z,23.69
2022-10-21T21:27:20.068Z,23.60
2022-10-21T21:29:48.401Z,23.68
2022-10-21T21:32:16.618Z,23.76
2022-10-21T21:34:45.073Z,23.59
2022-10-21T21:37:13.270Z,22.97
2022-10-21T21:39:41.454Z,23.61
2022-10-21T21:42:11.018Z,23.38
2022-10-21T21:44:39.191Z,23.53
2022-10-21T21:47:07.454Z,23.64
2022-10-21T21:49:35.628Z,23.71
2022-10-21T21:52:03.856Z,23.76
2022-10-21T21:54:32.144Z,23.26
2022-10-21T21:57:22.963Z,23.65
2022-10-21T21:59:49.944Z,23.76
2022-10-21T22:02:18.156Z,23.59
2022-10-21T22:04:47.104Z,23.75
2022-10-21T22:07:15.397Z,23.51
2022-10-21T22:09:43.712Z,23.12
2022-10-21T22:12:14.766Z,23.49
2022-10-21T22:14:43.641Z,23.10
2022-10-21T22:17:13.174Z,22.59
2022-10-21T22:19:41.412Z,23.06
2022-10-21T22:22:09.590Z,23.33
2022-10-21T22:24:37.882Z,23.40
2022-10-21T22:27:06.124Z,22.83
2022-10-21T22:29:34.533Z,22.95
2022-10-21T22:32:02.780Z,22.77
2022-10-21T22:34:37.521Z,22.44
2022-10-21T22:37:05.833Z,21.97
2022-10-21T22:39:34.038Z,22.86
2022-10-21T22:42:02.302Z,22.93
2022-10-21T22:44:30.522Z,22.03
2022-10-21T22:46:58.713Z,22.70
2022-10-21T22:49:26.895Z,23.14
2022-10-21T22:51:56.571Z,23.19
2022-10-21T22:54:47.897Z,22.89
2022-10-21T22:57:13.027Z,22.66
2022-10-21T22:59:43.762Z,23.07
2022-10-21T23:02:12.624Z,22.75
2022-10-21T23:04:40.794Z,22.67
2022-10-21T23:07:10.642Z,23.11
2022-10-21T23:09:38.915Z,22.61
2022-10-21T23:12:07.530Z,22.37
2022-10-21T23:14:35.754Z,23.30
2022-10-21T23:17:03.944Z,22.56
2022-10-21T23:19:32.137Z,22.47
2022-10-21T23:22:00.312Z,22.48
2022-10-21T23:24:30.054Z,22.65
2022-10-21T23:27:00.693Z,22.60
2022-10-21T23:29:29.862Z,22.90
2022-10-21T23:31:58.222Z,23.01
2022-10-21T23:34:26.556Z,23.18
2022-10-21T23:36:54.851Z,22.84
2022-10-21T23:39:23.096Z,22.60
2022-10-21T23:41:52.723Z,23.28
2022-10-21T23:44:21.000Z,23.00
2022-10-21T23:46:49.235Z,22.34
2022-10-21T23:49:17.672Z,22.27
2022-10-21T23:51:45.999Z,22.82
2022-10-21T23:54:14.439Z,22.79
2022-10-21T23:56:42.690Z,22.03
2022-10-21T23:59:12.323Z,21.93
